sensor_id;sensor_type;location;lat;lon;timestamp;P1;durP1;ratioP1;P2;durP2;ratioP2
35715;SDS011;21840;44.920;8.616;2022-11-15T00:01:49;164.25;;;27.15;;
35715;SDS011;21840;44.920;8.616;2022-11-15T00:04:33;48.10;;;26.63;;
35715;SDS011;21840;44.920;8.616;2022-11-15T00:07:17;87.80;;;28.40;;
35715;SDS011;21840;44.920;8.616;2022-11-15T00:10:01;46.28;;;27.27;;
35715;SDS011;21840;44.920;8.616;2022-11-15T00:12:48;48.45;;;28.25;;
35715;SDS011;21840;44.920;8.616;2022-11-15T00:15:34;51.30;;;28.60;;
35715;SDS011;21840;44.920;8.616;2022-11-15T00:18:20;77.57;;;29.17;;
35715;SDS011;21840;44.920;8.616;2022-11-15T00:21:05;44.30;;;27.88;;
35715;SDS011;21840;44.920;8.616;2022-11-15T00:23:53;52.15;;;29.33;;
35715;SDS011;21840;44.920;8.616;2022-11-15T00:26:37;55.88;;;29.70;;
35715;SDS011;21840;44.920;8.616;2022-11-15T00:29:21;50.20;;;29.50;;
35715;SDS011;21840;44.920;8.616;2022-11-15T00:32:07;49.25;;;27.48;;
35715;SDS011;21840;44.920;8.616;2022-11-15T00:34:51;55.78;;;28.92;;
35715;SDS011;21840;44.920;8.616;2022-11-15T00:37:35;63.65;;;30.15;;
35715;SDS011;21840;44.920;8.616;2022-11-15T00:40:19;65.00;;;28.35;;
35715;SDS011;21840;44.920;8.616;2022-11-15T00:43:03;67.57;;;28.45;;
35715;SDS011;21840;44.920;8.616;2022-11-15T00:45:47;58.05;;;27.90;;
35715;SDS011;21840;44.920;8.616;2022-11-15T00:48:31;195.00;;;28.65;;
35715;SDS011;21840;44.920;8.616;2022-11-15T00:51:15;115.93;;;28.55;;
35715;SDS011;21840;44.920;8.616;2022-11-15T00:53:59;126.97;;;28.00;;
35715;SDS011;21840;44.920;8.616;2022-11-15T00:56:43;82.40;;;27.60;;
35715;SDS011;21840;44.920;8.616;2022-11-15T00:59:27;93.57;;;26.50;;
35715;SDS011;21840;44.920;8.616;2022-11-15T01:02:11;90.47;;;25.25;;
35715;SDS011;21840;44.920;8.616;2022-11-15T01:04:55;92.97;;;24.50;;
35715;SDS011;21840;44.920;8.616;2022-11-15T01:07:39;109.70;;;24.70;;
35715;SDS011;21840;44.920;8.616;2022-11-15T01:10:23;111.57;;;24.83;;
35715;SDS011;21840;44.920;8.616;2022-11-15T01:13:09;58.13;;;23.35;;
35715;SDS011;21840;44.920;8.616;2022-11-15T01:15:53;51.40;;;23.20;;
35715;SDS011;21840;44.920;8.616;2022-11-15T01:18:37;92.28;;;23.17;;
35715;SDS011;21840;44.920;8.616;2022-11-15T01:21:21;80.80;;;24.65;;
35715;SDS011;21840;44.920;8.616;2022-11-15T01:24:05;101.63;;;25.25;;
35715;SDS011;21840;44.920;8.616;2022-11-15T01:26:50;92.72;;;25.58;;
35715;SDS011;21840;44.920;8.616;2022-11-15T01:29:34;59.90;;;25.52;;
35715;SDS011;21840;44.920;8.616;2022-11-15T01:32:18;69.82;;;26.38;;
35715;SDS011;21840;44.920;8.616;2022-11-15T01:35:02;71.00;;;24.08;;
35715;SDS011;21840;44.920;8.616;2022-11-15T01:37:46;54.03;;;25.85;;
35715;SDS011;21840;44.920;8.616;2022-11-15T01:40:30;124.10;;;24.50;;
35715;SDS011;21840;44.920;8.616;2022-11-15T01:43:24;67.63;;;23.42;;
35715;SDS011;21840;44.920;8.616;2022-11-15T01:46:17;100.07;;;23.55;;
35715;SDS011;21840;44.920;8.616;2022-11-15T01:49:05;83.38;;;24.00;;
35715;SDS011;21840;44.920;8.616;2022-11-15T01:51:56;52.50;;;23.85;;
35715;SDS011;21840;44.920;8.616;2022-11-15T01:54:42;65.65;;;25.42;;
35715;SDS011;21840;44.920;8.616;2022-11-15T01:57:26;45.35;;;24.08;;
35715;SDS011;21840;44.920;8.616;2022-11-15T02:00:10;52.85;;;24.20;;
35715;SDS011;21840;44.920;8.616;2022-11-15T02:02:55;46.20;;;23.77;;
35715;SDS011;21840;44.920;8.616;2022-11-15T02:05:40;50.05;;;24.98;;
35715;SDS011;21840;44.920;8.616;2022-11-15T02:08:28;60.80;;;25.60;;
35715;SDS011;21840;44.920;8.616;2022-11-15T02:11:12;46.58;;;23.00;;
35715;SDS011;21840;44.920;8.616;2022-11-15T02:13:57;43.80;;;25.20;;
35715;SDS011;21840;44.920;8.616;2022-11-15T02:16:48;49.53;;;24.80;;
35715;SDS011;21840;44.920;8.616;2022-11-15T02:33:26;41.72;;;24.88;;
35715;SDS011;21840;44.920;8.616;2022-11-15T02:39:41;46.03;;;25.75;;
35715;SDS011;21840;44.920;8.616;2022-11-15T02:42:21;46.28;;;26.00;;
35715;SDS011;21840;44.920;8.616;2022-11-15T02:45:36;44.25;;;26.23;;
35715;SDS011;21840;44.920;8.616;2022-11-15T02:48:30;45.67;;;26.27;;
35715;SDS011;21840;44.920;8.616;2022-11-15T02:51:15;43.75;;;25.08;;
35715;SDS011;21840;44.920;8.616;2022-11-15T02:54:00;46.42;;;26.50;;
35715;SDS011;21840;44.920;8.616;2022-11-15T02:56:44;46.78;;;27.02;;
35715;SDS011;21840;44.920;8.616;2022-11-15T03:11:14;46.58;;;25.95;;
35715;SDS011;21840;44.920;8.616;2022-11-15T03:20:07;46.60;;;26.40;;
35715;SDS011;21840;44.920;8.616;2022-11-15T03:22:53;46.45;;;24.88;;
35715;SDS011;21840;44.920;8.616;2022-11-15T03:25:41;48.80;;;26.05;;
35715;SDS011;21840;44.920;8.616;2022-11-15T03:28:32;54.40;;;26.52;;
35715;SDS011;21840;44.920;8.616;2022-11-15T03:31:20;51.13;;;27.15;;
35715;SDS011;21840;44.920;8.616;2022-11-15T03:37:22;52.20;;;27.85;;
35715;SDS011;21840;44.920;8.616;2022-11-15T03:40:12;48.47;;;26.13;;
35715;SDS011;21840;44.920;8.616;2022-11-15T03:43:00;48.53;;;26.45;;
35715;SDS011;21840;44.920;8.616;2022-11-15T03:45:55;51.10;;;27.30;;
35715;SDS011;21840;44.920;8.616;2022-11-15T03:51:57;52.33;;;28.55;;
35715;SDS011;21840;44.920;8.616;2022-11-15T03:55:04;49.08;;;27.67;;
35715;SDS011;21840;44.920;8.616;2022-11-15T03:57:50;50.92;;;28.75;;
35715;SDS011;21840;44.920;8.616;2022-11-15T04:00:36;48.45;;;26.58;;
35715;SDS011;21840;44.920;8.616;2022-11-15T04:03:20;48.92;;;26.45;;
35715;SDS011;21840;44.920;8.616;2022-11-15T04:06:04;49.58;;;27.23;;
35715;SDS011;21840;44.920;8.616;2022-11-15T04:08:48;48.35;;;25.85;;
35715;SDS011;21840;44.920;8.616;2022-11-15T04:11:32;49.92;;;26.08;;
35715;SDS011;21840;44.920;8.616;2022-11-15T04:14:16;43.35;;;25.58;;
35715;SDS011;21840;44.920;8.616;2022-11-15T04:17:00;42.30;;;24.90;;
35715;SDS011;21840;44.920;8.616;2022-11-15T04:19:44;43.72;;;25.88;;
35715;SDS011;21840;44.920;8.616;2022-11-15T04:22:52;46.95;;;25.15;;
35715;SDS011;21840;44.920;8.616;2022-11-15T04:25:56;40.42;;;24.90;;
35715;SDS011;21840;44.920;8.616;2022-11-15T04:28:43;43.72;;;25.08;;
35715;SDS011;21840;44.920;8.616;2022-11-15T04:31:46;43.33;;;25.10;;
35715;SDS011;21840;44.920;8.616;2022-11-15T04:34:30;41.67;;;24.63;;
35715;SDS011;21840;44.920;8.616;2022-11-15T04:37:14;44.80;;;26.30;;
35715;SDS011;21840;44.920;8.616;2022-11-15T04:40:00;45.33;;;25.98;;
35715;SDS011;21840;44.920;8.616;2022-11-15T04:42:44;46.90;;;27.33;;
35715;SDS011;21840;44.920;8.616;2022-11-15T04:45:28;42.13;;;26.20;;
35715;SDS011;21840;44.920;8.616;2022-11-15T04:48:12;47.28;;;27.23;;
35715;SDS011;21840;44.920;8.616;2022-11-15T04:50:56;46.65;;;27.85;;
35715;SDS011;21840;44.920;8.616;2022-11-15T04:53:40;50.40;;;29.27;;
35715;SDS011;21840;44.920;8.616;2022-11-15T04:56:24;54.35;;;28.60;;
35715;SDS011;21840;44.920;8.616;2022-11-15T04:59:07;51.78;;;29.23;;
35715;SDS011;21840;44.920;8.616;2022-11-15T05:01:51;47.75;;;26.80;;
35715;SDS011;21840;44.920;8.616;2022-11-15T05:04:35;49.65;;;27.00;;
35715;SDS011;21840;44.920;8.616;2022-11-15T05:07:19;47.25;;;27.92;;
35715;SDS011;21840;44.920;8.616;2022-11-15T05:10:03;46.53;;;27.35;;
35715;SDS011;21840;44.920;8.616;2022-11-15T05:12:48;47.92;;;27.60;;
35715;SDS011;21840;44.920;8.616;2022-11-15T05:15:31;46.47;;;27.33;;
35715;SDS011;21840;44.920;8.616;2022-11-15T05:18:15;47.75;;;27.00;;
35715;SDS011;21840;44.920;8.616;2022-11-15T05:21:06;47.50;;;28.77;;
35715;SDS011;21840;44.920;8.616;2022-11-15T05:23:51;49.63;;;27.05;;
35715;SDS011;21840;44.920;8.616;2022-11-15T05:26:35;43.95;;;26.42;;
35715;SDS011;21840;44.920;8.616;2022-11-15T05:29:19;49.97;;;27.35;;
35715;SDS011;21840;44.920;8.616;2022-11-15T05:32:04;51.58;;;26.95;;
35715;SDS011;21840;44.920;8.616;2022-11-15T05:34:52;49.95;;;27.60;;
35715;SDS011;21840;44.920;8.616;2022-11-15T05:37:36;46.65;;;26.55;;
35715;SDS011;21840;44.920;8.616;2022-11-15T05:40:20;53.47;;;26.85;;
35715;SDS011;21840;44.920;8.616;2022-11-15T05:43:04;46.10;;;26.30;;
35715;SDS011;21840;44.920;8.616;2022-11-15T05:45:49;47.55;;;26.38;;
35715;SDS011;21840;44.920;8.616;2022-11-15T05:48:34;50.33;;;27.17;;
35715;SDS011;21840;44.920;8.616;2022-11-15T05:51:20;41.55;;;23.90;;
35715;SDS011;21840;44.920;8.616;2022-11-15T05:54:05;50.50;;;26.10;;
35715;SDS011;21840;44.920;8.616;2022-11-15T05:56:53;45.42;;;25.17;;
35715;SDS011;21840;44.920;8.616;2022-11-15T05:59:39;44.40;;;25.17;;
35715;SDS011;21840;44.920;8.616;2022-11-15T06:02:24;43.45;;;25.75;;
35715;SDS011;21840;44.920;8.616;2022-11-15T06:05:08;44.50;;;25.13;;
35715;SDS011;21840;44.920;8.616;2022-11-15T06:07:52;45.80;;;24.92;;
35715;SDS011;21840;44.920;8.616;2022-11-15T06:10:36;44.38;;;25.23;;
35715;SDS011;21840;44.920;8.616;2022-11-15T06:13:20;45.25;;;26.23;;
35715;SDS011;21840;44.920;8.616;2022-11-15T06:16:04;52.22;;;27.48;;
35715;SDS011;21840;44.920;8.616;2022-11-15T06:18:49;46.53;;;26.10;;
35715;SDS011;21840;44.920;8.616;2022-11-15T06:21:33;46.97;;;25.55;;
35715;SDS011;21840;44.920;8.616;2022-11-15T06:24:20;46.60;;;25.80;;
35715;SDS011;21840;44.920;8.616;2022-11-15T06:27:04;42.78;;;25.77;;
35715;SDS011;21840;44.920;8.616;2022-11-15T06:29:48;49.88;;;27.58;;
35715;SDS011;21840;44.920;8.616;2022-11-15T06:32:32;49.13;;;26.77;;
35715;SDS011;21840;44.920;8.616;2022-11-15T06:35:15;53.00;;;27.02;;
35715;SDS011;21840;44.920;8.616;2022-11-15T06:38:07;42.65;;;25.98;;
35715;SDS011;21840;44.920;8.616;2022-11-15T06:40:53;42.75;;;24.40;;
35715;SDS011;21840;44.920;8.616;2022-11-15T06:43:37;48.03;;;25.40;;
35715;SDS011;21840;44.920;8.616;2022-11-15T06:46:21;40.03;;;24.55;;
35715;SDS011;21840;44.920;8.616;2022-11-15T06:49:05;40.03;;;24.00;;
35715;SDS011;21840;44.920;8.616;2022-11-15T06:51:49;42.40;;;24.58;;
35715;SDS011;21840;44.920;8.616;2022-11-15T06:54:32;46.95;;;27.13;;
35715;SDS011;21840;44.920;8.616;2022-11-15T06:57:16;39.65;;;24.10;;
35715;SDS011;21840;44.920;8.616;2022-11-15T07:00:01;45.60;;;24.70;;
35715;SDS011;21840;44.920;8.616;2022-11-15T07:02:47;46.67;;;26.17;;
35715;SDS011;21840;44.920;8.616;2022-11-15T07:05:31;43.67;;;25.15;;
35715;SDS011;21840;44.920;8.616;2022-11-15T07:08:15;40.15;;;24.83;;
35715;SDS011;21840;44.920;8.616;2022-11-15T07:11:00;42.97;;;24.70;;
35715;SDS011;21840;44.920;8.616;2022-11-15T07:13:45;40.30;;;24.58;;
35715;SDS011;21840;44.920;8.616;2022-11-15T07:16:29;38.97;;;24.75;;
35715;SDS011;21840;44.920;8.616;2022-11-15T07:19:13;41.20;;;24.60;;
35715;SDS011;21840;44.920;8.616;2022-11-15T07:21:57;42.70;;;23.58;;
35715;SDS011;21840;44.920;8.616;2022-11-15T07:24:41;42.08;;;24.98;;
35715;SDS011;21840;44.920;8.616;2022-11-15T07:27:25;44.30;;;25.25;;
35715;SDS011;21840;44.920;8.616;2022-11-15T07:30:09;41.25;;;23.67;;
35715;SDS011;21840;44.920;8.616;2022-11-15T07:32:56;46.70;;;24.23;;
35715;SDS011;21840;44.920;8.616;2022-11-15T07:35:41;46.90;;;23.20;;
35715;SDS011;21840;44.920;8.616;2022-11-15T07:38:26;38.63;;;24.05;;
35715;SDS011;21840;44.920;8.616;2022-11-15T07:41:10;37.53;;;23.63;;
35715;SDS011;21840;44.920;8.616;2022-11-15T07:43:54;37.83;;;24.35;;
35715;SDS011;21840;44.920;8.616;2022-11-15T07:46:38;38.35;;;23.35;;
35715;SDS011;21840;44.920;8.616;2022-11-15T07:49:22;37.97;;;24.13;;
35715;SDS011;21840;44.920;8.616;2022-11-15T07:52:06;39.30;;;24.75;;
35715;SDS011;21840;44.920;8.616;2022-11-15T07:54:50;36.08;;;23.60;;
35715;SDS011;21840;44.920;8.616;2022-11-15T07:57:34;36.03;;;23.00;;
35715;SDS011;21840;44.920;8.616;2022-11-15T08:00:19;37.63;;;23.10;;
35715;SDS011;21840;44.920;8.616;2022-11-15T08:03:07;37.60;;;23.73;;
35715;SDS011;21840;44.920;8.616;2022-11-15T08:05:53;39.85;;;24.70;;
35715;SDS011;21840;44.920;8.616;2022-11-15T08:08:36;35.63;;;23.45;;
35715;SDS011;21840;44.920;8.616;2022-11-15T08:11:20;37.15;;;23.35;;
35715;SDS011;21840;44.920;8.616;2022-11-15T08:14:04;40.05;;;23.98;;
35715;SDS011;21840;44.920;8.616;2022-11-15T08:16:48;38.83;;;24.67;;
35715;SDS011;21840;44.920;8.616;2022-11-15T08:19:32;43.15;;;25.63;;
35715;SDS011;21840;44.920;8.616;2022-11-15T08:22:17;42.17;;;25.02;;
35715;SDS011;21840;44.920;8.616;2022-11-15T08:25:01;38.97;;;23.92;;
35715;SDS011;21840;44.920;8.616;2022-11-15T08:27:45;44.38;;;23.48;;
35715;SDS011;21840;44.920;8.616;2022-11-15T08:30:29;40.38;;;25.23;;
35715;SDS011;21840;44.920;8.616;2022-11-15T08:33:13;38.88;;;23.67;;
35715;SDS011;21840;44.920;8.616;2022-11-15T08:35:58;43.50;;;25.08;;
35715;SDS011;21840;44.920;8.616;2022-11-15T08:38:43;50.70;;;25.40;;
35715;SDS011;21840;44.920;8.616;2022-11-15T08:41:30;40.00;;;24.42;;
35715;SDS011;21840;44.920;8.616;2022-11-15T08:44:15;42.35;;;25.17;;
35715;SDS011;21840;44.920;8.616;2022-11-15T08:46:59;40.97;;;24.33;;
35715;SDS011;21840;44.920;8.616;2022-11-15T08:49:43;41.25;;;24.77;;
35715;SDS011;21840;44.920;8.616;2022-11-15T08:52:27;43.30;;;23.95;;
35715;SDS011;21840;44.920;8.616;2022-11-15T08:55:11;45.08;;;24.80;;
35715;SDS011;21840;44.920;8.616;2022-11-15T08:57:56;42.65;;;25.63;;
35715;SDS011;21840;44.920;8.616;2022-11-15T09:00:41;41.40;;;24.88;;
35715;SDS011;21840;44.920;8.616;2022-11-15T09:03:25;41.40;;;25.15;;
35715;SDS011;21840;44.920;8.616;2022-11-15T09:06:09;40.20;;;24.80;;
35715;SDS011;21840;44.920;8.616;2022-11-15T09:08:53;40.90;;;23.98;;
35715;SDS011;21840;44.920;8.616;2022-11-15T09:11:37;38.65;;;23.13;;
35715;SDS011;21840;44.920;8.616;2022-11-15T09:14:21;37.97;;;24.58;;
35715;SDS011;21840;44.920;8.616;2022-11-15T09:17:07;36.50;;;23.27;;
35715;SDS011;21840;44.920;8.616;2022-11-15T09:19:52;38.90;;;23.88;;
35715;SDS011;21840;44.920;8.616;2022-11-15T09:22:36;39.33;;;24.30;;
35715;SDS011;21840;44.920;8.616;2022-11-15T09:25:22;37.83;;;24.27;;
35715;SDS011;21840;44.920;8.616;2022-11-15T09:28:06;40.00;;;25.55;;
35715;SDS011;21840;44.920;8.616;2022-11-15T09:30:51;40.55;;;25.20;;
35715;SDS011;21840;44.920;8.616;2022-11-15T09:33:35;39.28;;;25.30;;
35715;SDS011;21840;44.920;8.616;2022-11-15T09:36:19;40.55;;;26.23;;
35715;SDS011;21840;44.920;8.616;2022-11-15T09:39:03;40.78;;;26.17;;
35715;SDS011;21840;44.920;8.616;2022-11-15T09:48:24;41.53;;;27.10;;
35715;SDS011;21840;44.920;8.616;2022-11-15T09:51:13;43.35;;;26.73;;
35715;SDS011;21840;44.920;8.616;2022-11-15T09:53:57;44.50;;;27.20;;
35715;SDS011;21840;44.920;8.616;2022-11-15T09:56:31;42.92;;;27.42;;
35715;SDS011;21840;44.920;8.616;2022-11-15T09:59:04;40.53;;;26.15;;
35715;SDS011;21840;44.920;8.616;2022-11-15T10:04:09;43.25;;;27.48;;
35715;SDS011;21840;44.920;8.616;2022-11-15T10:06:36;44.75;;;27.02;;
35715;SDS011;21840;44.920;8.616;2022-11-15T10:11:38;41.33;;;27.15;;
35715;SDS011;21840;44.920;8.616;2022-11-15T10:14:15;38.72;;;26.02;;
35715;SDS011;21840;44.920;8.616;2022-11-15T10:22:46;43.65;;;27.20;;
35715;SDS011;21840;44.920;8.616;2022-11-15T10:25:19;52.03;;;29.98;;
35715;SDS011;21840;44.920;8.616;2022-11-15T10:27:46;47.72;;;29.25;;
35715;SDS011;21840;44.920;8.616;2022-11-15T10:30:18;46.42;;;29.02;;
35715;SDS011;21840;44.920;8.616;2022-11-15T10:32:44;45.75;;;29.60;;
35715;SDS011;21840;44.920;8.616;2022-11-15T10:35:25;48.53;;;29.73;;
35715;SDS011;21840;44.920;8.616;2022-11-15T10:38:05;52.97;;;30.27;;
35715;SDS011;21840;44.920;8.616;2022-11-15T10:40:33;51.47;;;30.63;;
35715;SDS011;21840;44.920;8.616;2022-11-15T10:45:42;49.22;;;31.33;;
35715;SDS011;21840;44.920;8.616;2022-11-15T10:50:43;58.28;;;33.40;;
35715;SDS011;21840;44.920;8.616;2022-11-15T10:53:21;60.63;;;34.17;;
35715;SDS011;21840;44.920;8.616;2022-11-15T10:55:49;53.88;;;31.80;;
35715;SDS011;21840;44.920;8.616;2022-11-15T11:00:53;55.95;;;33.50;;
35715;SDS011;21840;44.920;8.616;2022-11-15T11:05:50;54.97;;;33.38;;
35715;SDS011;21840;44.920;8.616;2022-11-15T11:08:31;54.17;;;34.72;;
35715;SDS011;21840;44.920;8.616;2022-11-15T11:10:58;51.72;;;31.60;;
35715;SDS011;21840;44.920;8.616;2022-11-15T11:13:26;53.10;;;32.20;;
35715;SDS011;21840;44.920;8.616;2022-11-15T11:16:41;56.88;;;32.03;;
35715;SDS011;21840;44.920;8.616;2022-11-15T11:24:08;57.95;;;33.75;;
35715;SDS011;21840;44.920;8.616;2022-11-15T11:29:53;56.65;;;33.13;;
35715;SDS011;21840;44.920;8.616;2022-11-15T11:42:02;56.40;;;34.15;;
35715;SDS011;21840;44.920;8.616;2022-11-15T11:52:03;60.33;;;36.15;;
35715;SDS011;21840;44.920;8.616;2022-11-15T11:54:46;58.30;;;35.25;;
35715;SDS011;21840;44.920;8.616;2022-11-15T11:57:56;59.42;;;35.92;;
35715;SDS011;21840;44.920;8.616;2022-11-15T12:00:38;59.95;;;35.50;;
35715;SDS011;21840;44.920;8.616;2022-11-15T12:05:35;56.80;;;34.63;;
35715;SDS011;21840;44.920;8.616;2022-11-15T12:08:09;52.78;;;31.45;;
35715;SDS011;21840;44.920;8.616;2022-11-15T12:10:57;51.08;;;32.15;;
35715;SDS011;21840;44.920;8.616;2022-11-15T12:13:29;51.95;;;32.17;;
35715;SDS011;21840;44.920;8.616;2022-11-15T12:16:02;52.80;;;32.85;;
35715;SDS011;21840;44.920;8.616;2022-11-15T12:18:34;56.95;;;32.65;;
35715;SDS011;21840;44.920;8.616;2022-11-15T12:21:02;52.38;;;32.03;;
35715;SDS011;21840;44.920;8.616;2022-11-15T12:23:32;50.45;;;31.38;;
35715;SDS011;21840;44.920;8.616;2022-11-15T12:26:09;53.13;;;32.20;;
35715;SDS011;21840;44.920;8.616;2022-11-15T12:31:41;51.63;;;31.25;;
35715;SDS011;21840;44.920;8.616;2022-11-15T12:36:55;55.08;;;32.67;;
35715;SDS011;21840;44.920;8.616;2022-11-15T12:39:21;47.83;;;28.63;;
35715;SDS011;21840;44.920;8.616;2022-11-15T12:42:43;45.03;;;27.33;;
35715;SDS011;21840;44.920;8.616;2022-11-15T12:48:21;47.50;;;28.85;;
35715;SDS011;21840;44.920;8.616;2022-11-15T12:58:45;37.13;;;23.73;;
35715;SDS011;21840;44.920;8.616;2022-11-15T13:06:48;35.72;;;22.65;;
35715;SDS011;21840;44.920;8.616;2022-11-15T13:14:47;32.90;;;21.17;;
35715;SDS011;21840;44.920;8.616;2022-11-15T13:19:48;29.45;;;19.10;;
35715;SDS011;21840;44.920;8.616;2022-11-15T13:22:37;27.48;;;18.63;;
35715;SDS011;21840;44.920;8.616;2022-11-15T13:35:48;29.10;;;18.70;;
35715;SDS011;21840;44.920;8.616;2022-11-15T13:38:27;28.75;;;19.30;;
35715;SDS011;21840;44.920;8.616;2022-11-15T13:40:55;28.58;;;18.52;;
35715;SDS011;21840;44.920;8.616;2022-11-15T13:48:33;28.77;;;18.42;;
35715;SDS011;21840;44.920;8.616;2022-11-15T13:50:59;30.10;;;18.02;;
35715;SDS011;21840;44.920;8.616;2022-11-15T13:53:30;31.50;;;17.55;;
35715;SDS011;21840;44.920;8.616;2022-11-15T13:55:57;32.05;;;17.73;;
35715;SDS011;21840;44.920;8.616;2022-11-15T13:58:24;24.70;;;16.60;;
35715;SDS011;21840;44.920;8.616;2022-11-15T14:00:59;23.23;;;16.27;;
35715;SDS011;21840;44.920;8.616;2022-11-15T14:03:34;23.08;;;15.70;;
35715;SDS011;21840;44.920;8.616;2022-11-15T14:08:40;20.25;;;13.70;;
35715;SDS011;21840;44.920;8.616;2022-11-15T14:11:22;17.63;;;12.00;;
35715;SDS011;21840;44.920;8.616;2022-11-15T14:16:34;16.05;;;10.90;;
35715;SDS011;21840;44.920;8.616;2022-11-15T14:19:00;15.18;;;10.90;;
35715;SDS011;21840;44.920;8.616;2022-11-15T14:21:26;14.60;;;9.68;;
35715;SDS011;21840;44.920;8.616;2022-11-15T14:23:51;17.48;;;10.65;;
35715;SDS011;21840;44.920;8.616;2022-11-15T14:26:31;15.65;;;10.10;;
35715;SDS011;21840;44.920;8.616;2022-11-15T14:31:48;13.70;;;9.02;;
35715;SDS011;21840;44.920;8.616;2022-11-15T14:34:14;11.60;;;8.50;;
35715;SDS011;21840;44.920;8.616;2022-11-15T14:36:39;17.70;;;9.40;;
35715;SDS011;21840;44.920;8.616;2022-11-15T14:39:05;16.13;;;9.05;;
35715;SDS011;21840;44.920;8.616;2022-11-15T14:41:33;21.20;;;10.35;;
35715;SDS011;21840;44.920;8.616;2022-11-15T14:44:02;12.20;;;8.65;;
35715;SDS011;21840;44.920;8.616;2022-11-15T14:46:29;15.43;;;8.73;;
35715;SDS011;21840;44.920;8.616;2022-11-15T14:48:54;12.30;;;8.30;;
35715;SDS011;21840;44.920;8.616;2022-11-15T14:51:20;10.25;;;7.38;;
35715;SDS011;21840;44.920;8.616;2022-11-15T14:53:46;18.27;;;8.73;;
35715;SDS011;21840;44.920;8.616;2022-11-15T14:56:12;17.42;;;9.48;;
35715;SDS011;21840;44.920;8.616;2022-11-15T14:58:39;10.75;;;7.82;;
35715;SDS011;21840;44.920;8.616;2022-11-15T15:01:19;15.02;;;8.38;;
35715;SDS011;21840;44.920;8.616;2022-11-15T15:06:12;11.45;;;8.38;;
35715;SDS011;21840;44.920;8.616;2022-11-15T15:08:39;10.65;;;7.88;;
35715;SDS011;21840;44.920;8.616;2022-11-15T15:11:24;18.52;;;8.82;;
35715;SDS011;21840;44.920;8.616;2022-11-15T15:13:51;10.77;;;8.23;;
35715;SDS011;21840;44.920;8.616;2022-11-15T15:16:20;13.18;;;8.25;;
35715;SDS011;21840;44.920;8.616;2022-11-15T15:18:46;12.63;;;7.47;;
35715;SDS011;21840;44.920;8.616;2022-11-15T15:21:16;14.15;;;7.60;;
35715;SDS011;21840;44.920;8.616;2022-11-15T15:23:53;12.23;;;7.40;;
35715;SDS011;21840;44.920;8.616;2022-11-15T15:26:19;12.55;;;7.63;;
35715;SDS011;21840;44.920;8.616;2022-11-15T15:28:45;11.23;;;7.50;;
35715;SDS011;21840;44.920;8.616;2022-11-15T15:31:13;15.75;;;7.43;;
35715;SDS011;21840;44.920;8.616;2022-11-15T15:33:39;10.45;;;7.18;;
35715;SDS011;21840;44.920;8.616;2022-11-15T15:36:05;10.77;;;7.38;;
35715;SDS011;21840;44.920;8.616;2022-11-15T15:38:30;8.90;;;6.68;;
35715;SDS011;21840;44.920;8.616;2022-11-15T15:40:56;9.88;;;6.80;;
35715;SDS011;21840;44.920;8.616;2022-11-15T15:43:21;11.88;;;6.75;;
35715;SDS011;21840;44.920;8.616;2022-11-15T15:45:47;11.70;;;7.38;;
35715;SDS011;21840;44.920;8.616;2022-11-15T15:48:13;10.13;;;6.88;;
35715;SDS011;21840;44.920;8.616;2022-11-15T15:50:40;10.45;;;7.15;;
35715;SDS011;21840;44.920;8.616;2022-11-15T15:53:07;11.27;;;7.43;;
35715;SDS011;21840;44.920;8.616;2022-11-15T15:55:35;12.18;;;7.32;;
35715;SDS011;21840;44.920;8.616;2022-11-15T15:58:01;10.98;;;7.75;;
35715;SDS011;21840;44.920;8.616;2022-11-15T16:00:27;9.85;;;7.38;;
35715;SDS011;21840;44.920;8.616;2022-11-15T16:02:53;10.25;;;6.68;;
35715;SDS011;21840;44.920;8.616;2022-11-15T16:05:19;10.57;;;7.22;;
35715;SDS011;21840;44.920;8.616;2022-11-15T16:07:45;10.40;;;7.57;;
35715;SDS011;21840;44.920;8.616;2022-11-15T16:12:44;9.00;;;6.53;;
35715;SDS011;21840;44.920;8.616;2022-11-15T16:15:09;9.77;;;6.95;;
35715;SDS011;21840;44.920;8.616;2022-11-15T16:17:37;13.15;;;6.88;;
35715;SDS011;21840;44.920;8.616;2022-11-15T16:20:05;12.90;;;7.28;;
35715;SDS011;21840;44.920;8.616;2022-11-15T16:22:40;8.85;;;6.60;;
35715;SDS011;21840;44.920;8.616;2022-11-15T16:25:06;11.07;;;6.65;;
35715;SDS011;21840;44.920;8.616;2022-11-15T16:27:32;10.48;;;7.80;;
35715;SDS011;21840;44.920;8.616;2022-11-15T16:29:58;11.63;;;7.35;;
35715;SDS011;21840;44.920;8.616;2022-11-15T16:32:23;11.88;;;8.00;;
35715;SDS011;21840;44.920;8.616;2022-11-15T16:34:49;10.70;;;7.68;;
35715;SDS011;21840;44.920;8.616;2022-11-15T16:37:23;11.98;;;7.72;;
35715;SDS011;21840;44.920;8.616;2022-11-15T16:39:49;9.65;;;6.78;;
35715;SDS011;21840;44.920;8.616;2022-11-15T16:42:15;8.82;;;6.93;;
35715;SDS011;21840;44.920;8.616;2022-11-15T16:44:41;9.85;;;6.82;;
35715;SDS011;21840;44.920;8.616;2022-11-15T16:47:16;8.90;;;6.82;;
35715;SDS011;21840;44.920;8.616;2022-11-15T16:49:46;10.18;;;7.13;;
35715;SDS011;21840;44.920;8.616;2022-11-15T16:52:12;10.65;;;6.53;;
35715;SDS011;21840;44.920;8.616;2022-11-15T16:54:38;16.27;;;7.65;;
35715;SDS011;21840;44.920;8.616;2022-11-15T16:57:04;10.63;;;7.55;;
35715;SDS011;21840;44.920;8.616;2022-11-15T16:59:29;10.95;;;7.18;;
35715;SDS011;21840;44.920;8.616;2022-11-15T17:01:57;11.07;;;7.50;;
35715;SDS011;21840;44.920;8.616;2022-11-15T17:04:23;11.27;;;6.90;;
35715;SDS011;21840;44.920;8.616;2022-11-15T17:06:48;9.95;;;7.07;;
35715;SDS011;21840;44.920;8.616;2022-11-15T17:09:16;9.88;;;7.30;;
35715;SDS011;21840;44.920;8.616;2022-11-15T17:11:47;12.80;;;8.02;;
35715;SDS011;21840;44.920;8.616;2022-11-15T17:14:13;11.85;;;7.75;;
35715;SDS011;21840;44.920;8.616;2022-11-15T17:16:39;13.95;;;8.07;;
35715;SDS011;21840;44.920;8.616;2022-11-15T17:19:19;16.58;;;8.95;;
35715;SDS011;21840;44.920;8.616;2022-11-15T17:21:46;16.92;;;10.15;;
35715;SDS011;21840;44.920;8.616;2022-11-15T17:24:13;13.48;;;9.68;;
35715;SDS011;21840;44.920;8.616;2022-11-15T17:26:39;15.00;;;9.35;;
35715;SDS011;21840;44.920;8.616;2022-11-15T17:29:07;13.25;;;9.75;;
35715;SDS011;21840;44.920;8.616;2022-11-15T17:31:35;19.33;;;11.80;;
35715;SDS011;21840;44.920;8.616;2022-11-15T17:34:03;18.13;;;11.32;;
35715;SDS011;21840;44.920;8.616;2022-11-15T17:36:29;18.73;;;11.73;;
35715;SDS011;21840;44.920;8.616;2022-11-15T17:38:55;18.20;;;11.70;;
35715;SDS011;21840;44.920;8.616;2022-11-15T17:41:21;20.15;;;11.90;;
35715;SDS011;21840;44.920;8.616;2022-11-15T17:43:47;22.40;;;12.88;;
35715;SDS011;21840;44.920;8.616;2022-11-15T17:46:14;18.48;;;12.63;;
35715;SDS011;21840;44.920;8.616;2022-11-15T17:48:42;16.45;;;11.63;;
35715;SDS011;21840;44.920;8.616;2022-11-15T17:51:09;22.25;;;13.68;;
35715;SDS011;21840;44.920;8.616;2022-11-15T17:53:38;21.73;;;12.75;;
35715;SDS011;21840;44.920;8.616;2022-11-15T17:56:10;18.75;;;12.27;;
35715;SDS011;21840;44.920;8.616;2022-11-15T17:58:37;16.48;;;11.35;;
35715;SDS011;21840;44.920;8.616;2022-11-15T18:01:07;16.23;;;11.45;;
35715;SDS011;21840;44.920;8.616;2022-11-15T18:03:38;15.88;;;11.20;;
35715;SDS011;21840;44.920;8.616;2022-11-15T18:06:04;18.65;;;11.45;;
35715;SDS011;21840;44.920;8.616;2022-11-15T18:08:30;18.52;;;11.13;;